sensor_id;sensor_type;location;lat;lon;timestamp;P1;durP1;ratioP1;P2;durP2;ratioP2
11247;SDS011;5681;53.316;13.950;2023-09-19T00:02:00;5.97;;;3.08;;
11247;SDS011;5681;53.316;13.950;2023-09-19T00:04:31;4.20;;;2.40;;
11247;SDS011;5681;53.316;13.950;2023-09-19T00:06:58;5.50;;;2.70;;
11247;SDS011;5681;53.316;13.950;2023-09-19T00:09:24;7.32;;;2.78;;
11247;SDS011;5681;53.316;13.950;2023-09-19T00:11:52;7.78;;;3.40;;
11247;SDS011;5681;53.316;13.950;2023-09-19T00:14:19;5.30;;;2.60;;
11247;SDS011;5681;53.316;13.950;2023-09-19T00:16:49;4.63;;;2.80;;
11247;SDS011;5681;53.316;13.950;2023-09-19T00:19:16;9.07;;;2.90;;
11247;SDS011;5681;53.316;13.950;2023-09-19T00:21:43;5.82;;;2.50;;
11247;SDS011;5681;53.316;13.950;2023-09-19T00:24:10;5.85;;;2.47;;
11247;SDS011;5681;53.316;13.950;2023-09-19T00:26:37;4.93;;;2.70;;
11247;SDS011;5681;53.316;13.950;2023-09-19T00:29:03;7.15;;;3.17;;
11247;SDS011;5681;53.316;13.950;2023-09-19T00:31:29;4.97;;;2.42;;
11247;SDS011;5681;53.316;13.950;2023-09-19T00:33:56;6.72;;;2.60;;
11247;SDS011;5681;53.316;13.950;2023-09-19T00:36:25;4.93;;;2.92;;
11247;SDS011;5681;53.316;13.950;2023-09-19T00:38:52;6.63;;;2.63;;
11247;SDS011;5681;53.316;13.950;2023-09-19T00:41:18;4.80;;;2.50;;
11247;SDS011;5681;53.316;13.950;2023-09-19T00:43:45;6.47;;;2.45;;
11247;SDS011;5681;53.316;13.950;2023-09-19T00:46:12;5.03;;;2.60;;
11247;SDS011;5681;53.316;13.950;2023-09-19T00:48:41;9.23;;;2.90;;
11247;SDS011;5681;53.316;13.950;2023-09-19T00:51:09;4.95;;;2.50;;
11247;SDS011;5681;53.316;13.950;2023-09-19T00:53:36;4.65;;;2.50;;
11247;SDS011;5681;53.316;13.950;2023-09-19T00:56:04;5.53;;;2.72;;
11247;SDS011;5681;53.316;13.950;2023-09-19T00:58:32;6.43;;;2.72;;
11247;SDS011;5681;53.316;13.950;2023-09-19T01:01:00;8.07;;;2.75;;
11247;SDS011;5681;53.316;13.950;2023-09-19T01:03:28;7.40;;;2.85;;
11247;SDS011;5681;53.316;13.950;2023-09-19T01:05:54;6.43;;;3.05;;
11247;SDS011;5681;53.316;13.950;2023-09-19T01:08:20;5.13;;;2.53;;
11247;SDS011;5681;53.316;13.950;2023-09-19T01:10:50;5.13;;;2.53;;
11247;SDS011;5681;53.316;13.950;2023-09-19T01:13:22;6.63;;;2.60;;
11247;SDS011;5681;53.316;13.950;2023-09-19T01:15:55;6.22;;;2.47;;
11247;SDS011;5681;53.316;13.950;2023-09-19T01:18:27;5.68;;;2.83;;
11247;SDS011;5681;53.316;13.950;2023-09-19T01:21:00;7.18;;;2.90;;
11247;SDS011;5681;53.316;13.950;2023-09-19T01:23:35;4.45;;;2.50;;
11247;SDS011;5681;53.316;13.950;2023-09-19T01:26:18;6.30;;;2.90;;
11247;SDS011;5681;53.316;13.950;2023-09-19T01:28:53;3.97;;;2.40;;
11247;SDS011;5681;53.316;13.950;2023-09-19T01:31:22;5.88;;;2.78;;
11247;SDS011;5681;53.316;13.950;2023-09-19T01:33:53;6.60;;;2.45;;
11247;SDS011;5681;53.316;13.950;2023-09-19T01:36:22;6.22;;;2.63;;
11247;SDS011;5681;53.316;13.950;2023-09-19T01:38:49;6.32;;;2.50;;
11247;SDS011;5681;53.316;13.950;2023-09-19T01:41:16;7.32;;;2.97;;
11247;SDS011;5681;53.316;13.950;2023-09-19T01:43:47;6.25;;;2.58;;
11247;SDS011;5681;53.316;13.950;2023-09-19T01:46:16;5.45;;;2.10;;
11247;SDS011;5681;53.316;13.950;2023-09-19T01:49:02;5.90;;;2.63;;
11247;SDS011;5681;53.316;13.950;2023-09-19T01:51:33;4.93;;;2.72;;
11247;SDS011;5681;53.316;13.950;2023-09-19T01:54:03;5.10;;;2.40;;
11247;SDS011;5681;53.316;13.950;2023-09-19T01:56:36;7.70;;;2.80;;
11247;SDS011;5681;53.316;13.950;2023-09-19T01:59:04;5.28;;;2.58;;
11247;SDS011;5681;53.316;13.950;2023-09-19T02:01:32;7.45;;;2.83;;
11247;SDS011;5681;53.316;13.950;2023-09-19T02:04:01;5.97;;;2.65;;
11247;SDS011;5681;53.316;13.950;2023-09-19T02:06:27;9.40;;;2.85;;
11247;SDS011;5681;53.316;13.950;2023-09-19T02:08:54;5.10;;;2.63;;
11247;SDS011;5681;53.316;13.950;2023-09-19T02:11:21;5.38;;;2.65;;
11247;SDS011;5681;53.316;13.950;2023-09-19T02:13:47;4.80;;;2.70;;
11247;SDS011;5681;53.316;13.950;2023-09-19T02:16:16;5.18;;;2.78;;
11247;SDS011;5681;53.316;13.950;2023-09-19T02:18:44;6.68;;;2.88;;
11247;SDS011;5681;53.316;13.950;2023-09-19T02:21:13;7.20;;;2.83;;
11247;SDS011;5681;53.316;13.950;2023-09-19T02:23:40;6.72;;;2.83;;
11247;SDS011;5681;53.316;13.950;2023-09-19T02:26:06;6.18;;;3.13;;
11247;SDS011;5681;53.316;13.950;2023-09-19T02:28:32;5.88;;;2.70;;
11247;SDS011;5681;53.316;13.950;2023-09-19T02:30:59;9.93;;;3.00;;
11247;SDS011;5681;53.316;13.950;2023-09-19T02:33:25;5.80;;;2.83;;
11247;SDS011;5681;53.316;13.950;2023-09-19T02:35:54;4.93;;;3.10;;
11247;SDS011;5681;53.316;13.950;2023-09-19T02:38:23;5.53;;;2.97;;
11247;SDS011;5681;53.316;13.950;2023-09-19T02:40:51;5.07;;;2.83;;
11247;SDS011;5681;53.316;13.950;2023-09-19T02:43:17;7.30;;;2.92;;
11247;SDS011;5681;53.316;13.950;2023-09-19T02:45:44;7.35;;;3.35;;
11247;SDS011;5681;53.316;13.950;2023-09-19T02:48:11;8.70;;;2.80;;
11247;SDS011;5681;53.316;13.950;2023-09-19T02:50:38;5.07;;;2.83;;
11247;SDS011;5681;53.316;13.950;2023-09-19T02:53:05;5.30;;;2.90;;
11247;SDS011;5681;53.316;13.950;2023-09-19T02:55:33;6.38;;;3.00;;
11247;SDS011;5681;53.316;13.950;2023-09-19T02:57:59;5.57;;;2.65;;
11247;SDS011;5681;53.316;13.950;2023-09-19T03:00:26;4.18;;;2.60;;
11247;SDS011;5681;53.316;13.950;2023-09-19T03:02:53;8.27;;;2.75;;
11247;SDS011;5681;53.316;13.950;2023-09-19T03:05:20;6.88;;;2.90;;
11247;SDS011;5681;53.316;13.950;2023-09-19T03:07:48;5.82;;;3.17;;
11247;SDS011;5681;53.316;13.950;2023-09-19T03:10:16;5.60;;;2.95;;
11247;SDS011;5681;53.316;13.950;2023-09-19T03:12:44;9.35;;;2.80;;
11247;SDS011;5681;53.316;13.950;2023-09-19T03:15:10;6.32;;;2.95;;
11247;SDS011;5681;53.316;13.950;2023-09-19T03:17:36;5.43;;;2.90;;
11247;SDS011;5681;53.316;13.950;2023-09-19T03:20:03;5.30;;;3.00;;
11247;SDS011;5681;53.316;13.950;2023-09-19T03:22:32;5.70;;;2.70;;
11247;SDS011;5681;53.316;13.950;2023-09-19T03:24:59;5.78;;;3.10;;
11247;SDS011;5681;53.316;13.950;2023-09-19T03:27:25;7.38;;;3.30;;
11247;SDS011;5681;53.316;13.950;2023-09-19T03:29:53;6.43;;;2.67;;
11247;SDS011;5681;53.316;13.950;2023-09-19T03:32:20;7.15;;;3.10;;
11247;SDS011;5681;53.316;13.950;2023-09-19T03:34:46;8.77;;;2.80;;
11247;SDS011;5681;53.316;13.950;2023-09-19T03:37:13;5.15;;;2.60;;
11247;SDS011;5681;53.316;13.950;2023-09-19T03:39:40;6.95;;;2.30;;
11247;SDS011;5681;53.316;13.950;2023-09-19T03:42:06;8.30;;;3.10;;
11247;SDS011;5681;53.316;13.950;2023-09-19T03:44:32;4.70;;;2.55;;
11247;SDS011;5681;53.316;13.950;2023-09-19T03:47:00;5.03;;;2.47;;
11247;SDS011;5681;53.316;13.950;2023-09-19T03:49:27;6.00;;;2.50;;
11247;SDS011;5681;53.316;13.950;2023-09-19T03:51:53;5.15;;;2.50;;
11247;SDS011;5681;53.316;13.950;2023-09-19T03:54:20;5.38;;;2.55;;
11247;SDS011;5681;53.316;13.950;2023-09-19T03:56:46;4.35;;;2.60;;
11247;SDS011;5681;53.316;13.950;2023-09-19T03:59:12;4.13;;;2.30;;
11247;SDS011;5681;53.316;13.950;2023-09-19T04:01:39;7.70;;;3.03;;
11247;SDS011;5681;53.316;13.950;2023-09-19T04:04:07;5.15;;;2.70;;
11247;SDS011;5681;53.316;13.950;2023-09-19T04:06:34;5.10;;;2.50;;
11247;SDS011;5681;53.316;13.950;2023-09-19T04:09:01;5.57;;;2.60;;
11247;SDS011;5681;53.316;13.950;2023-09-19T04:11:28;5.70;;;2.10;;
11247;SDS011;5681;53.316;13.950;2023-09-19T04:13:54;4.32;;;2.17;;
11247;SDS011;5681;53.316;13.950;2023-09-19T04:16:21;5.63;;;2.15;;
11247;SDS011;5681;53.316;13.950;2023-09-19T04:18:47;5.78;;;2.22;;
11247;SDS011;5681;53.316;13.950;2023-09-19T04:21:15;4.38;;;2.22;;
11247;SDS011;5681;53.316;13.950;2023-09-19T04:23:41;5.75;;;2.25;;
11247;SDS011;5681;53.316;13.950;2023-09-19T04:26:08;7.40;;;2.28;;
11247;SDS011;5681;53.316;13.950;2023-09-19T04:28:34;3.80;;;2.15;;
11247;SDS011;5681;53.316;13.950;2023-09-19T04:31:03;6.53;;;2.05;;
11247;SDS011;5681;53.316;13.950;2023-09-19T04:33:30;6.57;;;2.15;;
11247;SDS011;5681;53.316;13.950;2023-09-19T04:35:58;6.65;;;2.17;;
11247;SDS011;5681;53.316;13.950;2023-09-19T04:38:26;3.88;;;2.10;;
11247;SDS011;5681;53.316;13.950;2023-09-19T04:40:56;3.92;;;2.08;;
11247;SDS011;5681;53.316;13.950;2023-09-19T04:43:23;5.38;;;1.85;;
11247;SDS011;5681;53.316;13.950;2023-09-19T04:45:49;5.47;;;2.00;;
11247;SDS011;5681;53.316;13.950;2023-09-19T04:48:19;3.67;;;1.77;;
11247;SDS011;5681;53.316;13.950;2023-09-19T04:50:45;3.97;;;1.83;;
11247;SDS011;5681;53.316;13.950;2023-09-19T04:53:14;6.72;;;2.20;;
11247;SDS011;5681;53.316;13.950;2023-09-19T04:55:42;4.97;;;1.92;;
11247;SDS011;5681;53.316;13.950;2023-09-19T04:58:08;7.25;;;2.25;;
11247;SDS011;5681;53.316;13.950;2023-09-19T05:00:35;4.32;;;2.08;;
11247;SDS011;5681;53.316;13.950;2023-09-19T05:03:01;4.38;;;1.88;;
11247;SDS011;5681;53.316;13.950;2023-09-19T05:05:29;2.58;;;1.73;;
11247;SDS011;5681;53.316;13.950;2023-09-19T05:07:55;2.83;;;1.75;;
11247;SDS011;5681;53.316;13.950;2023-09-19T05:10:22;3.75;;;1.95;;
11247;SDS011;5681;53.316;13.950;2023-09-19T05:12:49;5.57;;;2.10;;
11247;SDS011;5681;53.316;13.950;2023-09-19T05:15:19;5.38;;;2.05;;
11247;SDS011;5681;53.316;13.950;2023-09-19T05:17:49;3.75;;;1.80;;
11247;SDS011;5681;53.316;13.950;2023-09-19T05:20:16;3.40;;;1.98;;
11247;SDS011;5681;53.316;13.950;2023-09-19T05:22:49;5.57;;;2.05;;
11247;SDS011;5681;53.316;13.950;2023-09-19T05:25:16;4.35;;;2.00;;
11247;SDS011;5681;53.316;13.950;2023-09-19T05:27:43;3.65;;;2.08;;
11247;SDS011;5681;53.316;13.950;2023-09-19T05:30:12;4.00;;;1.83;;
11247;SDS011;5681;53.316;13.950;2023-09-19T05:32:40;4.53;;;1.80;;
11247;SDS011;5681;53.316;13.950;2023-09-19T05:35:08;4.55;;;2.10;;
11247;SDS011;5681;53.316;13.950;2023-09-19T05:37:34;2.88;;;1.63;;
11247;SDS011;5681;53.316;13.950;2023-09-19T05:40:01;6.25;;;1.77;;
11247;SDS011;5681;53.316;13.950;2023-09-19T05:42:32;5.90;;;2.22;;
11247;SDS011;5681;53.316;13.950;2023-09-19T05:44:58;6.18;;;2.00;;
11247;SDS011;5681;53.316;13.950;2023-09-19T05:47:26;2.60;;;1.60;;
11247;SDS011;5681;53.316;13.950;2023-09-19T05:49:53;3.20;;;1.85;;
11247;SDS011;5681;53.316;13.950;2023-09-19T05:52:19;7.72;;;2.20;;
11247;SDS011;5681;53.316;13.950;2023-09-19T05:54:47;2.65;;;2.00;;
11247;SDS011;5681;53.316;13.950;2023-09-19T05:57:14;7.80;;;2.15;;
11247;SDS011;5681;53.316;13.950;2023-09-19T05:59:41;2.47;;;1.92;;
11247;SDS011;5681;53.316;13.950;2023-09-19T06:02:08;5.57;;;2.60;;
11247;SDS011;5681;53.316;13.950;2023-09-19T06:04:37;5.40;;;2.33;;
11247;SDS011;5681;53.316;13.950;2023-09-19T06:07:05;8.23;;;2.20;;
11247;SDS011;5681;53.316;13.950;2023-09-19T06:09:32;4.60;;;1.95;;
11247;SDS011;5681;53.316;13.950;2023-09-19T06:11:58;4.43;;;2.53;;
11247;SDS011;5681;53.316;13.950;2023-09-19T06:14:28;8.07;;;2.63;;
11247;SDS011;5681;53.316;13.950;2023-09-19T06:16:54;5.22;;;2.00;;
11247;SDS011;5681;53.316;13.950;2023-09-19T06:19:21;5.15;;;2.08;;
11247;SDS011;5681;53.316;13.950;2023-09-19T06:21:52;6.25;;;2.10;;
11247;SDS011;5681;53.316;13.950;2023-09-19T06:24:18;8.45;;;1.90;;
11247;SDS011;5681;53.316;13.950;2023-09-19T06:26:46;5.32;;;2.10;;
11247;SDS011;5681;53.316;13.950;2023-09-19T06:29:12;3.05;;;1.75;;
11247;SDS011;5681;53.316;13.950;2023-09-19T06:31:39;6.47;;;1.80;;
11247;SDS011;5681;53.316;13.950;2023-09-19T06:34:06;5.70;;;1.95;;
11247;SDS011;5681;53.316;13.950;2023-09-19T06:36:33;8.50;;;2.55;;
11247;SDS011;5681;53.316;13.950;2023-09-19T06:39:00;5.53;;;2.00;;
11247;SDS011;5681;53.316;13.950;2023-09-19T06:41:29;9.68;;;2.20;;
11247;SDS011;5681;53.316;13.950;2023-09-19T06:43:55;3.38;;;1.90;;
11247;SDS011;5681;53.316;13.950;2023-09-19T06:46:22;4.00;;;1.88;;
11247;SDS011;5681;53.316;13.950;2023-09-19T06:48:49;4.30;;;1.70;;
11247;SDS011;5681;53.316;13.950;2023-09-19T06:51:17;3.80;;;2.20;;
11247;SDS011;5681;53.316;13.950;2023-09-19T06:53:44;6.10;;;2.10;;
11247;SDS011;5681;53.316;13.950;2023-09-19T06:56:12;8.27;;;2.05;;
11247;SDS011;5681;53.316;13.950;2023-09-19T06:58:38;11.13;;;2.30;;
11247;SDS011;5681;53.316;13.950;2023-09-19T07:01:04;5.82;;;2.13;;
11247;SDS011;5681;53.316;13.950;2023-09-19T07:03:31;7.00;;;2.10;;
11247;SDS011;5681;53.316;13.950;2023-09-19T07:05:58;4.97;;;1.95;;
11247;SDS011;5681;53.316;13.950;2023-09-19T07:08:24;6.72;;;2.00;;
11247;SDS011;5681;53.316;13.950;2023-09-19T07:10:51;7.53;;;1.95;;
11247;SDS011;5681;53.316;13.950;2023-09-19T07:13:19;4.22;;;2.08;;
11247;SDS011;5681;53.316;13.950;2023-09-19T07:15:45;6.35;;;2.13;;
11247;SDS011;5681;53.316;13.950;2023-09-19T07:18:15;7.47;;;1.88;;
11247;SDS011;5681;53.316;13.950;2023-09-19T07:20:42;6.55;;;2.15;;
11247;SDS011;5681;53.316;13.950;2023-09-19T07:23:13;8.98;;;2.17;;
11247;SDS011;5681;53.316;13.950;2023-09-19T07:25:40;10.48;;;2.40;;
11247;SDS011;5681;53.316;13.950;2023-09-19T07:28:06;6.55;;;2.17;;
11247;SDS011;5681;53.316;13.950;2023-09-19T07:30:36;5.03;;;1.85;;
11247;SDS011;5681;53.316;13.950;2023-09-19T07:33:04;5.70;;;2.20;;
11247;SDS011;5681;53.316;13.950;2023-09-19T07:35:31;3.55;;;1.77;;
11247;SDS011;5681;53.316;13.950;2023-09-19T07:37:57;4.80;;;1.98;;
11247;SDS011;5681;53.316;13.950;2023-09-19T07:40:26;6.22;;;1.77;;
11247;SDS011;5681;53.316;13.950;2023-09-19T07:42:53;5.15;;;1.83;;
11247;SDS011;5681;53.316;13.950;2023-09-19T07:45:20;5.07;;;1.92;;
11247;SDS011;5681;53.316;13.950;2023-09-19T07:47:50;6.00;;;2.30;;
11247;SDS011;5681;53.316;13.950;2023-09-19T07:50:17;6.28;;;2.13;;
11247;SDS011;5681;53.316;13.950;2023-09-19T07:52:44;5.13;;;1.95;;
11247;SDS011;5681;53.316;13.950;2023-09-19T07:55:11;8.98;;;2.25;;
11247;SDS011;5681;53.316;13.950;2023-09-19T07:57:42;8.30;;;2.10;;
11247;SDS011;5681;53.316;13.950;2023-09-19T08:00:09;6.30;;;2.15;;
11247;SDS011;5681;53.316;13.950;2023-09-19T08:02:36;5.88;;;1.77;;
11247;SDS011;5681;53.316;13.950;2023-09-19T08:05:05;9.98;;;2.20;;
11247;SDS011;5681;53.316;13.950;2023-09-19T08:07:34;8.50;;;2.22;;
11247;SDS011;5681;53.316;13.950;2023-09-19T08:10:01;6.15;;;1.73;;
11247;SDS011;5681;53.316;13.950;2023-09-19T08:12:28;8.98;;;2.10;;
11247;SDS011;5681;53.316;13.950;2023-09-19T08:14:55;13.77;;;2.42;;
11247;SDS011;5681;53.316;13.950;2023-09-19T08:17:21;7.53;;;2.30;;
11247;SDS011;5681;53.316;13.950;2023-09-19T08:19:48;7.60;;;2.28;;
11247;SDS011;5681;53.316;13.950;2023-09-19T08:22:19;6.15;;;2.30;;
11247;SDS011;5681;53.316;13.950;2023-09-19T08:24:46;6.30;;;2.30;;
11247;SDS011;5681;53.316;13.950;2023-09-19T08:27:13;6.78;;;2.22;;
11247;SDS011;5681;53.316;13.950;2023-09-19T08:29:39;9.52;;;2.50;;
11247;SDS011;5681;53.316;13.950;2023-09-19T08:32:07;10.90;;;2.20;;
11247;SDS011;5681;53.316;13.950;2023-09-19T08:34:33;7.22;;;2.15;;
11247;SDS011;5681;53.316;13.950;2023-09-19T08:37:03;10.80;;;2.67;;
11247;SDS011;5681;53.316;13.950;2023-09-19T08:39:31;8.57;;;2.20;;
11247;SDS011;5681;53.316;13.950;2023-09-19T08:41:58;6.22;;;2.30;;
11247;SDS011;5681;53.316;13.950;2023-09-19T08:44:28;8.55;;;2.42;;
11247;SDS011;5681;53.316;13.950;2023-09-19T08:46:55;6.05;;;2.38;;
11247;SDS011;5681;53.316;13.950;2023-09-19T08:49:32;7.63;;;2.40;;
11247;SDS011;5681;53.316;13.950;2023-09-19T08:52:05;11.15;;;2.53;;
11247;SDS011;5681;53.316;13.950;2023-09-19T08:54:38;7.65;;;2.30;;
11247;SDS011;5681;53.316;13.950;2023-09-19T08:57:07;10.35;;;2.42;;
11247;SDS011;5681;53.316;13.950;2023-09-19T08:59:35;9.23;;;2.35;;
11247;SDS011;5681;53.316;13.950;2023-09-19T09:02:04;3.67;;;1.85;;
11247;SDS011;5681;53.316;13.950;2023-09-19T09:04:37;8.95;;;2.60;;
11247;SDS011;5681;53.316;13.950;2023-09-19T09:07:05;6.75;;;2.25;;
11247;SDS011;5681;53.316;13.950;2023-09-19T09:09:31;8.93;;;2.30;;
11247;SDS011;5681;53.316;13.950;2023-09-19T09:11:59;6.93;;;2.13;;
11247;SDS011;5681;53.316;13.950;2023-09-19T09:14:25;6.28;;;2.58;;
11247;SDS011;5681;53.316;13.950;2023-09-19T09:16:52;5.35;;;2.30;;
11247;SDS011;5681;53.316;13.950;2023-09-19T09:19:21;9.40;;;2.20;;
11247;SDS011;5681;53.316;13.950;2023-09-19T09:21:50;6.93;;;2.38;;
11247;SDS011;5681;53.316;13.950;2023-09-19T09:24:26;7.32;;;2.08;;
11247;SDS011;5681;53.316;13.950;2023-09-19T09:26:53;11.05;;;2.63;;
11247;SDS011;5681;53.316;13.950;2023-09-19T09:29:24;6.93;;;2.20;;
11247;SDS011;5681;53.316;13.950;2023-09-19T09:32:16;9.55;;;1.80;;
11247;SDS011;5681;53.316;13.950;2023-09-19T09:34:43;4.75;;;2.22;;
11247;SDS011;5681;53.316;13.950;2023-09-19T09:37:12;7.00;;;2.00;;
11247;SDS011;5681;53.316;13.950;2023-09-19T09:39:40;12.27;;;2.60;;
11247;SDS011;5681;53.316;13.950;2023-09-19T09:42:07;7.10;;;2.38;;
11247;SDS011;5681;53.316;13.950;2023-09-19T09:44:36;10.63;;;2.42;;
11247;SDS011;5681;53.316;13.950;2023-09-19T09:47:02;6.82;;;2.20;;
11247;SDS011;5681;53.316;13.950;2023-09-19T09:49:49;4.10;;;1.90;;
11247;SDS011;5681;53.316;13.950;2023-09-19T09:52:31;5.00;;;2.15;;
11247;SDS011;5681;53.316;13.950;2023-09-19T09:55:10;6.35;;;2.20;;
11247;SDS011;5681;53.316;13.950;2023-09-19T09:57:37;9.10;;;2.42;;
11247;SDS011;5681;53.316;13.950;2023-09-19T10:00:08;8.18;;;2.28;;
11247;SDS011;5681;53.316;13.950;2023-09-19T10:02:45;5.15;;;2.03;;
11247;SDS011;5681;53.316;13.950;2023-09-19T10:05:12;10.25;;;2.40;;
11247;SDS011;5681;53.316;13.950;2023-09-19T10:07:46;7.40;;;2.10;;
11247;SDS011;5681;53.316;13.950;2023-09-19T10:10:14;5.00;;;2.10;;
11247;SDS011;5681;53.316;13.950;2023-09-19T10:12:47;8.50;;;2.30;;
11247;SDS011;5681;53.316;13.950;2023-09-19T10:15:16;6.85;;;2.30;;
11247;SDS011;5681;53.316;13.950;2023-09-19T10:17:45;15.52;;;2.75;;
11247;SDS011;5681;53.316;13.950;2023-09-19T10:20:13;7.38;;;2.03;;
11247;SDS011;5681;53.316;13.950;2023-09-19T10:22:57;5.25;;;1.92;;
11247;SDS011;5681;53.316;13.950;2023-09-19T10:25:25;3.42;;;1.75;;
11247;SDS011;5681;53.316;13.950;2023-09-19T10:27:54;4.38;;;1.80;;
11247;SDS011;5681;53.316;13.950;2023-09-19T10:30:22;7.50;;;2.13;;
11247;SDS011;5681;53.316;13.950;2023-09-19T10:32:53;7.60;;;2.03;;
11247;SDS011;5681;53.316;13.950;2023-09-19T10:35:24;8.38;;;2.50;;
11247;SDS011;5681;53.316;13.950;2023-09-19T10:37:53;8.73;;;2.10;;
11247;SDS011;5681;53.316;13.950;2023-09-19T10:40:20;5.75;;;2.00;;
11247;SDS011;5681;53.316;13.950;2023-09-19T10:42:51;3.88;;;2.15;;
11247;SDS011;5681;53.316;13.950;2023-09-19T10:45:18;6.20;;;2.17;;
11247;SDS011;5681;53.316;13.950;2023-09-19T10:47:46;8.20;;;2.20;;
11247;SDS011;5681;53.316;13.950;2023-09-19T10:50:19;4.00;;;2.00;;
11247;SDS011;5681;53.316;13.950;2023-09-19T10:52:46;7.13;;;2.20;;
11247;SDS011;5681;53.316;13.950;2023-09-19T10:55:15;6.85;;;2.00;;
11247;SDS011;5681;53.316;13.950;2023-09-19T10:57:44;9.27;;;2.22;;
11247;SDS011;5681;53.316;13.950;2023-09-19T11:00:11;4.32;;;1.88;;
11247;SDS011;5681;53.316;13.950;2023-09-19T11:03:17;5.28;;;2.00;;
11247;SDS011;5681;53.316;13.950;2023-09-19T11:06:01;9.82;;;2.53;;
11247;SDS011;5681;53.316;13.950;2023-09-19T11:08:46;4.60;;;2.33;;
11247;SDS011;5681;53.316;13.950;2023-09-19T11:14:30;6.22;;;2.25;;
11247;SDS011;5681;53.316;13.950;2023-09-19T11:20:22;7.38;;;2.45;;
11247;SDS011;5681;53.316;13.950;2023-09-19T11:23:19;5.63;;;2.08;;
11247;SDS011;5681;53.316;13.950;2023-09-19T11:25:50;7.15;;;2.20;;
11247;SDS011;5681;53.316;13.950;2023-09-19T11:28:28;6.53;;;2.58;;
11247;SDS011;5681;53.316;13.950;2023-09-19T11:30:56;4.28;;;2.17;;
11247;SDS011;5681;53.316;13.950;2023-09-19T11:33:24;4.30;;;2.08;;
11247;SDS011;5681;53.316;13.950;2023-09-19T11:36:01;4.35;;;1.95;;
11247;SDS011;5681;53.316;13.950;2023-09-19T11:41:37;9.82;;;2.00;;
11247;SDS011;5681;53.316;13.950;2023-09-19T11:47:01;9.82;;;2.35;;
11247;SDS011;5681;53.316;13.950;2023-09-19T11:49:29;8.70;;;2.10;;
11247;SDS011;5681;53.316;13.950;2023-09-19T11:51:58;6.18;;;2.40;;
11247;SDS011;5681;53.316;13.950;2023-09-19T11:54:26;5.95;;;2.20;;
11247;SDS011;5681;53.316;13.950;2023-09-19T11:56:56;6.65;;;2.33;;
11247;SDS011;5681;53.316;13.950;2023-09-19T11:59:24;8.60;;;2.58;;
11247;SDS011;5681;53.316;13.950;2023-09-19T12:01:53;7.03;;;2.40;;
11247;SDS011;5681;53.316;13.950;2023-09-19T12:04:22;10.60;;;2.75;;
11247;SDS011;5681;53.316;13.950;2023-09-19T12:07:01;6.95;;;2.63;;
11247;SDS011;5681;53.316;13.950;2023-09-19T12:09:27;7.80;;;2.58;;
11247;SDS011;5681;53.316;13.950;2023-09-19T12:11:54;6.68;;;2.38;;
11247;SDS011;5681;53.316;13.950;2023-09-19T12:14:23;6.10;;;2.10;;
11247;SDS011;5681;53.316;13.950;2023-09-19T12:16:51;8.13;;;2.33;;
11247;SDS011;5681;53.316;13.950;2023-09-19T12:19:20;6.90;;;1.88;;
11247;SDS011;5681;53.316;13.950;2023-09-19T12:21:54;13.25;;;2.28;;
11247;SDS011;5681;53.316;13.950;2023-09-19T12:24:24;7.88;;;2.38;;
11247;SDS011;5681;53.316;13.950;2023-09-19T12:26:51;6.68;;;2.33;;
11247;SDS011;5681;53.316;13.950;2023-09-19T12:29:19;8.18;;;2.70;;
11247;SDS011;5681;53.316;13.950;2023-09-19T12:31:47;8.40;;;2.30;;
11247;SDS011;5681;53.316;13.950;2023-09-19T12:34:15;11.90;;;2.83;;
11247;SDS011;5681;53.316;13.950;2023-09-19T12:36:44;9.18;;;2.05;;
11247;SDS011;5681;53.316;13.950;2023-09-19T12:39:11;7.35;;;2.28;;
11247;SDS011;5681;53.316;13.950;2023-09-19T12:41:40;8.05;;;2.35;;
11247;SDS011;5681;53.316;13.950;2023-09-19T12:44:06;5.93;;;1.75;;
11247;SDS011;5681;53.316;13.950;2023-09-19T12:46:34;11.55;;;2.60;;
11247;SDS011;5681;53.316;13.950;2023-09-19T12:49:14;8.80;;;2.50;;
11247;SDS011;5681;53.316;13.950;2023-09-19T12:51:42;6.53;;;2.47;;
11247;SDS011;5681;53.316;13.950;2023-09-19T12:54:09;6.53;;;2.42;;
11247;SDS011;5681;53.316;13.950;2023-09-19T12:56:40;10.27;;;2.35;;
11247;SDS011;5681;53.316;13.950;2023-09-19T12:59:09;5.63;;;2.28;;
11247;SDS011;5681;53.316;13.950;2023-09-19T13:01:38;7.95;;;2.50;;
11247;SDS011;5681;53.316;13.950;2023-09-19T13:04:14;10.27;;;2.35;;
11247;SDS011;5681;53.316;13.950;2023-09-19T13:06:44;6.78;;;2.50;;
11247;SDS011;5681;53.316;13.950;2023-09-19T13:09:13;11.18;;;2.47;;
11247;SDS011;5681;53.316;13.950;2023-09-19T13:11:42;8.48;;;2.22;;
11247;SDS011;5681;53.316;13.950;2023-09-19T13:14:14;8.40;;;2.17;;
11247;SDS011;5681;53.316;13.950;2023-09-19T13:19:39;6.13;;;2.00;;
11247;SDS011;5681;53.316;13.950;2023-09-19T13:25:05;6.20;;;2.05;;
11247;SDS011;5681;53.316;13.950;2023-09-19T13:27:34;8.13;;;2.05;;
11247;SDS011;5681;53.316;13.950;2023-09-19T13:30:00;4.35;;;1.88;;
11247;SDS011;5681;53.316;13.950;2023-09-19T13:32:27;5.13;;;2.03;;
11247;SDS011;5681;53.316;13.950;2023-09-19T13:34:53;8.98;;;2.13;;
11247;SDS011;5681;53.316;13.950;2023-09-19T13:37:20;5.03;;;1.90;;
11247;SDS011;5681;53.316;13.950;2023-09-19T13:39:46;7.65;;;2.10;;
11247;SDS011;5681;53.316;13.950;2023-09-19T13:42:13;9.07;;;2.33;;
11247;SDS011;5681;53.316;13.950;2023-09-19T13:44:42;8.00;;;2.20;;
11247;SDS011;5681;53.316;13.950;2023-09-19T13:47:08;5.93;;;1.98;;
11247;SDS011;5681;53.316;13.950;2023-09-19T13:49:35;7.15;;;2.28;;
11247;SDS011;5681;53.316;13.950;2023-09-19T13:52:02;7.05;;;1.92;;
11247;SDS011;5681;53.316;13.950;2023-09-19T13:54:30;5.15;;;1.80;;
11247;SDS011;5681;53.316;13.950;2023-09-19T13:56:56;7.70;;;1.88;;
11247;SDS011;5681;53.316;13.950;2023-09-19T13:59:23;6.72;;;2.10;;
11247;SDS011;5681;53.316;13.950;2023-09-19T14:01:50;5.03;;;1.90;;
11247;SDS011;5681;53.316;13.950;2023-09-19T14:04:18;7.18;;;1.98;;
11247;SDS011;5681;53.316;13.950;2023-09-19T14:06:46;6.45;;;1.95;;
11247;SDS011;5681;53.316;13.950;2023-09-19T14:09:12;6.45;;;2.03;;
11247;SDS011;5681;53.316;13.950;2023-09-19T14:11:38;10.95;;;2.28;;
11247;SDS011;5681;53.316;13.950;2023-09-19T14:14:07;11.75;;;2.58;;
11247;SDS011;5681;53.316;13.950;2023-09-19T14:16:33;7.45;;;2.25;;
11247;SDS011;5681;53.316;13.950;2023-09-19T14:19:01;8.68;;;2.17;;
11247;SDS011;5681;53.316;13.950;2023-09-19T14:21:27;10.18;;;2.00;;
11247;SDS011;5681;53.316;13.950;2023-09-19T14:23:53;9.60;;;2.08;;
11247;SDS011;5681;53.316;13.950;2023-09-19T14:26:20;8.30;;;2.90;;
11247;SDS011;5681;53.316;13.950;2023-09-19T14:28:48;7.82;;;2.30;;
11247;SDS011;5681;53.316;13.950;2023-09-19T14:31:14;6.03;;;1.92;;
11247;SDS011;5681;53.316;13.950;2023-09-19T14:33:41;6.95;;;2.40;;
11247;SDS011;5681;53.316;13.950;2023-09-19T14:36:09;7.32;;;2.08;;
11247;SDS011;5681;53.316;13.950;2023-09-19T14:38:36;8.75;;;2.00;;
11247;SDS011;5681;53.316;13.950;2023-09-19T14:41:04;8.95;;;2.15;;
11247;SDS011;5681;53.316;13.950;2023-09-19T14:43:31;9.68;;;2.30;;
11247;SDS011;5681;53.316;13.950;2023-09-19T14:45:57;8.18;;;2.10;;
11247;SDS011;5681;53.316;13.950;2023-09-19T14:48:24;7.50;;;2.22;;
11247;SDS011;5681;53.316;13.950;2023-09-19T14:50:50;9.45;;;2.30;;
11247;SDS011;5681;53.316;13.950;2023-09-19T14:53:18;7.47;;;2.13;;
11247;SDS011;5681;53.316;13.950;2023-09-19T14:55:45;5.75;;;2.20;;
11247;SDS011;5681;53.316;13.950;2023-09-19T14:58:12;8.30;;;2.50;;
11247;SDS011;5681;53.316;13.950;2023-09-19T15:00:39;9.25;;;2.03;;
11247;SDS011;5681;53.316;13.950;2023-09-19T15:03:05;9.02;;;2.10;;
11247;SDS011;5681;53.316;13.950;2023-09-19T15:05:31;5.20;;;2.00;;
11247;SDS011;5681;53.316;13.950;2023-09-19T15:07:59;9.30;;;2.13;;
11247;SDS011;5681;53.316;13.950;2023-09-19T15:10:27;4.82;;;2.10;;
11247;SDS011;5681;53.316;13.950;2023-09-19T15:12:53;9.73;;;2.38;;
11247;SDS011;5681;53.316;13.950;2023-09-19T15:15:19;4.57;;;2.00;;